createdAt,value
2017-11-05T00:00:10.525Z,95.17
2017-11-05T00:01:10.522Z,95.27
2017-11-05T00:02:10.520Z,95.27
2017-11-05T00:03:10.513Z,94.89
2017-11-05T00:04:10.515Z,95.94
2017-11-05T00:05:10.501Z,95.75
2017-11-05T00:06:10.490Z,95.75
2017-11-05T00:07:10.486Z,95.75
2017-11-05T00:08:10.482Z,95.94
2017-11-05T00:09:10.479Z,96.03
2017-11-05T00:10:10.472Z,96.32
2017-11-05T00:11:10.479Z,95.84
2017-11-05T00:12:10.464Z,95.94
2017-11-05T00:13:10.453Z,96.13
2017-11-05T00:14:10.453Z,96.22
2017-11-05T00:15:10.448Z,96.32
2017-11-05T00:16:10.439Z,96.70
2017-11-05T00:17:10.436Z,96.13
2017-11-05T00:18:10.447Z,96.03
2017-11-05T00:19:10.426Z,96.03
2017-11-05T00:20:10.421Z,96.03
2017-11-05T00:21:10.415Z,96.32
2017-11-05T00:22:10.405Z,95.84
2017-11-05T00:23:10.400Z,95.65
2017-11-05T00:24:10.398Z,95.65
2017-11-05T00:25:10.391Z,95.75
2017-11-05T00:26:10.398Z,95.75
2017-11-05T00:27:10.383Z,96.03
2017-11-05T00:28:10.376Z,96.13
2017-11-05T00:29:10.367Z,95.94
2017-11-05T00:30:10.366Z,96.32
2017-11-05T00:31:10.361Z,96.22
2017-11-05T00:32:10.357Z,96.03
2017-11-05T00:33:10.353Z,96.32
2017-11-05T00:34:10.347Z,96.61
2017-11-05T00:35:10.341Z,96.61
2017-11-05T00:36:10.337Z,96.32
2017-11-05T00:37:10.326Z,96.42
2017-11-05T00:38:10.322Z,96.70
2017-11-05T00:39:10.325Z,96.99
2017-11-05T00:40:10.312Z,96.61
2017-11-05T00:41:10.307Z,96.42
2017-11-05T00:42:10.299Z,96.42
2017-11-05T00:43:10.329Z,96.42
2017-11-05T00:44:10.294Z,97.18
2017-11-05T00:45:10.287Z,96.89
2017-11-05T00:46:10.268Z,96.80
2017-11-05T00:47:10.268Z,97.47
2017-11-05T00:48:10.266Z,97.18
2017-11-05T00:49:10.259Z,97.28
2017-11-05T00:50:10.267Z,97.08
2017-11-05T00:51:10.248Z,97.37
2017-11-05T00:52:10.250Z,97.08
2017-11-05T00:53:10.236Z,96.99
2017-11-05T00:54:10.231Z,97.28
2017-11-05T00:55:10.224Z,96.94
2017-11-05T00:56:11.147Z,96.89
2017-11-05T00:57:10.224Z,97.28
2017-11-05T00:58:10.213Z,98.52
2017-11-05T00:59:10.216Z,97.85
2017-11-05T01:00:10.201Z,97.66
2017-11-05T01:01:10.204Z,97.75
2017-11-05T01:02:10.186Z,97.56
2017-11-05T01:03:10.180Z,97.28
2017-11-05T01:04:10.180Z,97.32
2017-11-05T01:05:10.176Z,97.28
2017-11-05T01:06:10.166Z,96.99
2017-11-05T01:07:10.156Z,97.08
2017-11-05T01:08:10.168Z,96.99
2017-11-05T01:09:10.153Z,97.56
2017-11-05T01:10:10.146Z,97.94
2017-11-05T01:11:10.140Z,98.13
2017-11-05T01:12:10.134Z,97.85
2017-11-05T01:13:10.132Z,97.61
2017-11-05T01:14:10.143Z,97.56
2017-11-05T01:15:10.121Z,97.66
2017-11-05T01:16:10.113Z,97.47
2017-11-05T01:17:10.107Z,97.56
2017-11-05T01:18:10.103Z,97.56
2017-11-05T01:19:10.095Z,97.66
2017-11-05T01:20:10.096Z,97.37
2017-11-05T01:21:10.087Z,97.66
2017-11-05T01:22:10.078Z,97.85
2017-11-05T01:23:10.080Z,97.66
2017-11-05T01:24:10.064Z,97.47
2017-11-05T01:25:10.062Z,97.03
2017-11-05T01:26:10.059Z,97.08
2017-11-05T01:27:10.059Z,96.37
2017-11-05T01:28:10.049Z,96.75
2017-11-05T01:29:10.041Z,97.03
2017-11-05T01:30:10.034Z,97.13
2017-11-05T01:31:10.033Z,97.23
2017-11-05T01:32:10.036Z,96.66
2017-11-05T01:33:10.022Z,97.89
2017-11-05T01:34:10.015Z,97.99
2017-11-05T01:35:10.005Z,97.80
2017-11-05T01:36:10.000Z,97.71
2017-11-05T01:37:09.995Z,97.80
2017-11-05T01:38:09.989Z,97.61
2017-11-05T01:39:09.981Z,97.42
2017-11-05T01:40:09.981Z,97.42
2017-11-05T01:41:09.974Z,97.13
2017-11-05T01:42:09.963Z,97.32
2017-11-05T01:43:09.961Z,97.13
2017-11-05T01:44:09.953Z,97.32
2017-11-05T01:45:09.953Z,97.03
2017-11-05T01:46:09.944Z,97.03
2017-11-05T01:47:09.937Z,96.56
2017-11-05T01:48:09.932Z,96.37
2017-11-05T01:49:09.926Z,96.37
2017-11-05T01:50:09.924Z,96.75
2017-11-05T01:51:09.920Z,96.84
2017-11-05T01:52:09.929Z,96.94
2017-11-05T01:53:09.911Z,96.46
2017-11-05T01:54:09.890Z,97.03
2017-11-05T01:55:09.887Z,97.03
2017-11-05T01:56:09.889Z,96.84
2017-11-05T01:57:09.884Z,96.94
2017-11-05T01:58:09.871Z,96.46
2017-11-05T01:59:09.867Z,96.27
2017-11-05T02:00:09.863Z,96.75
2017-11-05T02:01:09.859Z,96.94
2017-11-05T02:02:09.849Z,97.32
2017-11-05T02:03:09.844Z,96.94
2017-11-05T02:04:09.832Z,97.42
2017-11-05T02:05:09.831Z,97.03
2017-11-05T02:06:09.835Z,97.23
2017-11-05T02:07:09.837Z,97.13
2017-11-05T02:08:09.818Z,97.23
2017-11-05T02:09:09.813Z,97.42
2017-11-05T02:10:09.806Z,97.61
2017-11-05T02:11:09.799Z,97.61
2017-11-05T02:12:09.802Z,97.32
2017-11-05T02:13:09.791Z,97.32
2017-11-05T02:14:09.785Z,97.61
2017-11-05T02:15:09.775Z,98.18
2017-11-05T02:16:09.769Z,98.08
2017-11-05T02:17:09.764Z,97.80
2017-11-05T02:18:09.756Z,98.37
2017-11-05T02:19:09.750Z,98.18
2017-11-05T02:20:09.747Z,98.37
2017-11-05T02:21:09.747Z,97.71
2017-11-05T02:22:09.740Z,98.08
2017-11-05T02:23:09.738Z,98.18
2017-11-05T02:24:09.738Z,98.18
2017-11-05T02:25:09.721Z,97.61
2017-11-05T02:26:09.711Z,97.23
2017-11-05T02:27:09.711Z,96.94
2017-11-05T02:28:09.707Z,97.13
2017-11-05T02:29:09.697Z,97.23
2017-11-05T02:30:09.689Z,97.23
2017-11-05T02:31:09.695Z,96.75
2017-11-05T02:32:09.679Z,96.75
2017-11-05T02:33:09.664Z,96.56
2017-11-05T02:34:09.664Z,96.42
2017-11-05T02:35:09.659Z,95.79
2017-11-05T02:36:09.653Z,95.03
2017-11-05T02:37:09.645Z,94.93
2017-11-05T02:38:09.642Z,95.17
2017-11-05T02:39:09.640Z,94.31
2017-11-05T02:40:09.650Z,93.84
2017-11-05T02:41:09.628Z,93.74
2017-11-05T02:42:09.631Z,94.12
2017-11-05T02:43:09.613Z,93.55
2017-11-05T02:44:09.606Z,93.84
2017-11-05T02:45:09.599Z,93.84
2017-11-05T02:46:09.597Z,93.84
2017-11-05T02:47:09.590Z,93.93
2017-11-05T02:48:09.585Z,93.74
2017-11-05T02:49:09.580Z,94.22
2017-11-05T02:50:09.572Z,93.93
2017-11-05T02:51:09.576Z,94.03
2017-11-05T02:52:09.561Z,94.41
2017-11-05T02:53:09.559Z,94.41
2017-11-05T02:54:09.544Z,94.60
2017-11-05T02:55:09.539Z,94.51
2017-11-05T02:56:09.534Z,94.31
2017-11-05T02:57:09.529Z,94.51
2017-11-05T02:58:09.521Z,94.51
2017-11-05T02:59:09.514Z,94.51
2017-11-05T03:00:09.514Z,94.79
2017-11-05T03:01:09.502Z,95.36
2017-11-05T03:02:09.500Z,94.51
2017-11-05T03:03:09.501Z,95.08
2017-11-05T03:04:09.488Z,94.98
2017-11-05T03:05:09.484Z,95.17
2017-11-05T03:06:09.475Z,95.17
2017-11-05T03:07:09.474Z,95.36
2017-11-05T03:08:09.462Z,95.03
2017-11-05T03:09:09.459Z,95.17
2017-11-05T03:10:09.446Z,94.98
2017-11-05T03:11:09.439Z,95.27
2017-11-05T03:12:09.434Z,95.32
2017-11-05T03:13:09.429Z,94.74
2017-11-05T03:14:09.424Z,95.12
2017-11-05T03:15:09.414Z,95.79
2017-11-05T03:16:09.421Z,95.61
2017-11-05T03:17:09.404Z,95.98
2017-11-05T03:18:09.401Z,95.41
2017-11-05T03:19:09.394Z,95.70
2017-11-05T03:20:09.386Z,95.51
2017-11-05T03:21:09.382Z,96.27
2017-11-05T03:22:09.374Z,96.08
2017-11-05T03:23:09.368Z,95.98
2017-11-05T03:24:09.360Z,95.79
2017-11-05T03:25:09.358Z,95.79
2017-11-05T03:26:09.345Z,96.46
2017-11-05T03:27:09.339Z,95.89
2017-11-05T03:28:09.333Z,96.46
2017-11-05T03:29:09.333Z,96.66
2017-11-05T03:30:09.326Z,96.37
2017-11-05T03:31:09.313Z,96.46
2017-11-05T03:32:09.308Z,96.84
2017-11-05T03:33:09.300Z,97.03
2017-11-05T03:34:09.303Z,96.75
2017-11-05T03:35:09.290Z,97.03
2017-11-05T03:36:09.282Z,96.66
2017-11-05T03:37:09.276Z,96.75
2017-11-05T03:38:09.278Z,96.84
2017-11-05T03:39:09.265Z,96.84
2017-11-05T03:40:09.260Z,96.75
2017-11-05T03:41:09.254Z,97.13
2017-11-05T03:42:09.241Z,97.13
2017-11-05T03:43:09.243Z,96.94
2017-11-05T03:44:09.229Z,97.22
2017-11-05T03:45:09.222Z,96.94
2017-11-05T03:46:09.221Z,96.75
2017-11-05T03:47:09.211Z,97.03
2017-11-05T03:48:09.208Z,97.03
2017-11-05T03:49:09.204Z,96.66
2017-11-05T03:50:09.196Z,96.84
2017-11-05T03:51:09.186Z,96.46
2017-11-05T03:52:09.184Z,96.94
2017-11-05T03:53:09.179Z,96.75
2017-11-05T03:54:09.166Z,97.03
2017-11-05T03:55:09.159Z,96.46
2017-11-05T03:56:09.155Z,96.66
2017-11-05T03:57:09.148Z,97.22
2017-11-05T03:58:09.136Z,96.94
2017-11-05T03:59:09.131Z,96.94
2017-11-05T04:00:09.127Z,96.66
2017-11-05T04:01:09.119Z,96.94
2017-11-05T04:02:09.112Z,97.03
2017-11-05T04:03:09.110Z,97.22
2017-11-05T04:04:09.098Z,97.13
2017-11-05T04:05:09.098Z,96.84
2017-11-05T04:06:09.086Z,96.66
2017-11-05T04:07:09.081Z,96.75
2017-11-05T04:08:09.076Z,96.66
2017-11-05T04:09:09.062Z,97.22
2017-11-05T04:10:09.066Z,97.13
2017-11-05T04:11:09.062Z,97.42
2017-11-05T04:12:09.050Z,96.94
2017-11-05T04:13:09.045Z,97.32
2017-11-05T04:14:09.033Z,97.03
2017-11-05T04:15:09.029Z,97.03
2017-11-05T04:16:09.023Z,97.51
2017-11-05T04:17:09.014Z,97.42
2017-11-05T04:18:09.006Z,97.13
2017-11-05T04:19:09.001Z,97.03
2017-11-05T04:20:09.001Z,97.51
2017-11-05T04:21:08.988Z,97.13
2017-11-05T04:22:08.982Z,97.03
2017-11-05T04:23:08.977Z,96.94
2017-11-05T04:24:08.991Z,97.13
2017-11-05T04:25:08.965Z,97.22
2017-11-05T04:26:08.961Z,97.13
2017-11-05T04:27:08.953Z,96.94
2017-11-05T04:28:08.946Z,97.32
2017-11-05T04:29:08.940Z,97.03
2017-11-05T04:30:08.927Z,97.03
2017-11-05T04:31:08.924Z,97.22
2017-11-05T04:32:08.912Z,97.22
2017-11-05T04:33:08.909Z,97.61
2017-11-05T04:34:08.906Z,97.61
2017-11-05T04:35:08.897Z,97.42
2017-11-05T04:36:08.904Z,97.51
2017-11-05T04:37:08.889Z,97.42
2017-11-05T04:38:08.886Z,97.32
2017-11-05T04:39:08.875Z,97.22
2017-11-05T04:40:08.869Z,96.66
2017-11-05T04:41:08.859Z,96.66
2017-11-05T04:42:08.853Z,97.13
2017-11-05T04:43:08.849Z,97.22
2017-11-05T04:44:08.842Z,96.84
2017-11-05T04:45:08.833Z,96.56
2017-11-05T04:46:08.837Z,97.03
2017-11-05T04:47:08.821Z,96.84
2017-11-05T04:48:08.813Z,96.27
2017-11-05T04:49:08.806Z,96.37
2017-11-05T04:50:08.806Z,96.27
2017-11-05T04:51:08.797Z,96.75
2017-11-05T04:52:08.790Z,96.27
2017-11-05T04:53:08.786Z,96.27
2017-11-05T04:54:08.773Z,96.27
2017-11-05T04:55:08.771Z,96.27
2017-11-05T04:56:08.760Z,96.56
2017-11-05T04:57:08.754Z,96.46
2017-11-05T04:58:08.748Z,96.27
2017-11-05T04:59:08.742Z,96.37
2017-11-05T05:00:08.736Z,96.37
2017-11-05T05:01:08.734Z,96.17
2017-11-05T05:02:08.725Z,95.98
2017-11-05T05:03:08.719Z,95.89
2017-11-05T05:04:08.712Z,95.79
2017-11-05T05:05:08.708Z,95.98
2017-11-05T05:06:08.701Z,95.89
2017-11-05T05:07:08.692Z,95.98
2017-11-05T05:08:08.684Z,95.79
2017-11-05T05:09:08.682Z,95.70
2017-11-05T05:10:08.671Z,95.89
2017-11-05T05:11:08.667Z,96.17
2017-11-05T05:12:08.653Z,95.89
2017-11-05T05:13:08.655Z,95.70
2017-11-05T05:14:08.645Z,95.70
2017-11-05T05:15:08.637Z,95.41
2017-11-05T05:16:08.637Z,95.51
2017-11-05T05:17:08.630Z,95.61
2017-11-05T05:18:08.627Z,95.51
2017-11-05T05:19:08.613Z,95.51
2017-11-05T05:20:08.614Z,95.61
2017-11-05T05:21:08.628Z,95.41
2017-11-05T05:22:08.593Z,95.79
2017-11-05T05:23:08.594Z,95.12
2017-11-05T05:24:08.591Z,95.51
2017-11-05T05:25:08.578Z,95.51
2017-11-05T05:26:08.574Z,96.22
2017-11-05T05:27:08.566Z,95.70
2017-11-05T05:28:08.567Z,95.65
2017-11-05T05:29:08.545Z,95.65
2017-11-05T05:30:08.534Z,95.70
2017-11-05T05:31:08.549Z,95.03
2017-11-05T05:32:08.525Z,94.98
2017-11-05T05:33:08.528Z,95.27
2017-11-05T05:34:08.516Z,95.65
2017-11-05T05:35:08.521Z,94.79
2017-11-05T05:36:08.501Z,95.08
2017-11-05T05:37:08.493Z,95.08
2017-11-05T05:38:08.485Z,95.37
2017-11-05T05:39:08.480Z,95.08
2017-11-05T05:40:08.474Z,95.08
2017-11-05T05:41:08.468Z,95.17
2017-11-05T05:42:08.457Z,94.79
2017-11-05T05:43:08.458Z,94.98
2017-11-05T05:44:08.447Z,94.41
2017-11-05T05:45:08.441Z,94.60
2017-11-05T05:46:08.433Z,94.32
2017-11-05T05:47:08.423Z,94.12
2017-11-05T05:48:08.415Z,94.12
2017-11-05T05:49:08.408Z,93.84
2017-11-05T05:50:08.405Z,94.70
2017-11-05T05:51:08.412Z,94.41
2017-11-05T05:52:08.382Z,93.65
2017-11-05T05:53:08.383Z,94.12
2017-11-05T05:54:08.374Z,93.55
2017-11-05T05:55:08.364Z,93.55
2017-11-05T05:56:08.360Z,94.03
2017-11-05T05:57:08.355Z,93.84
2017-11-05T05:58:08.350Z,93.08
2017-11-05T05:59:08.337Z,93.74
2017-11-05T06:00:08.326Z,93.36
2017-11-05T06:01:08.336Z,92.36
2017-11-05T06:02:08.317Z,92.84
2017-11-05T06:03:08.317Z,93.51
2017-11-05T06:04:08.306Z,93.70
2017-11-05T06:05:08.300Z,93.32
2017-11-05T06:06:08.285Z,93.41
2017-11-05T06:07:08.279Z,93.46
2017-11-05T06:08:08.273Z,93.41
2017-11-05T06:09:08.269Z,93.41
2017-11-05T06:10:08.257Z,93.32
2017-11-05T06:11:08.250Z,93.70
2017-11-05T06:12:08.274Z,93.98
2017-11-05T06:13:08.239Z,94.08
2017-11-05T06:14:08.233Z,93.88
2017-11-05T06:15:08.221Z,94.37
2017-11-05T06:16:08.216Z,94.56
2017-11-05T06:17:08.209Z,93.60
2017-11-05T06:18:08.206Z,94.27
2017-11-05T06:19:08.195Z,94.46
2017-11-05T06:20:08.187Z,94.56
2017-11-05T06:21:08.183Z,94.37
2017-11-05T06:22:08.172Z,94.27
2017-11-05T06:23:08.166Z,94.56
2017-11-05T06:24:08.161Z,93.70
2017-11-05T06:25:08.145Z,94.27
2017-11-05T06:26:08.147Z,94.65
2017-11-05T06:27:08.134Z,94.37
2017-11-05T06:28:08.129Z,93.70
2017-11-05T06:29:08.130Z,93.79
2017-11-05T06:30:08.112Z,94.08
2017-11-05T06:31:08.107Z,94.08
2017-11-05T06:32:08.096Z,94.27
2017-11-05T06:33:08.093Z,94.37
2017-11-05T06:34:08.083Z,94.65
2017-11-05T06:35:08.078Z,94.37
2017-11-05T06:36:08.069Z,94.46
2017-11-05T06:37:08.061Z,94.46
2017-11-05T06:38:08.052Z,94.74
2017-11-05T06:39:08.046Z,95.22
2017-11-05T06:40:08.038Z,94.84
2017-11-05T06:41:08.035Z,95.32
2017-11-05T06:42:08.792Z,95.22
2017-11-05T06:43:08.016Z,94.56
2017-11-05T06:44:08.010Z,94.37
2017-11-05T06:45:08.004Z,93.88
2017-11-05T06:46:07.991Z,94.27
2017-11-05T06:47:07.984Z,94.17
2017-11-05T06:48:07.978Z,94.37
2017-11-05T06:49:07.970Z,94.22
2017-11-05T06:50:07.970Z,94.27
2017-11-05T06:51:07.955Z,93.79
2017-11-05T06:52:07.947Z,94.56
2017-11-05T06:53:07.939Z,94.17
2017-11-05T06:54:07.930Z,94.46
2017-11-05T06:55:07.924Z,94.32
2017-11-05T06:56:07.917Z,94.08
2017-11-05T06:57:07.919Z,94.37
2017-11-05T06:58:07.903Z,93.88
2017-11-05T06:59:07.894Z,93.93
2017-11-05T07:00:07.886Z,93.74
2017-11-05T07:01:07.885Z,93.84
2017-11-05T07:02:07.873Z,94.03
2017-11-05T07:03:07.876Z,93.37
2017-11-05T07:04:07.857Z,93.65
2017-11-05T07:05:07.847Z,93.37
2017-11-05T07:06:07.846Z,93.17
2017-11-05T07:07:07.824Z,93.65
2017-11-05T07:08:07.823Z,94.03
2017-11-05T07:09:07.815Z,93.46
2017-11-05T07:10:07.808Z,93.93
2017-11-05T07:11:07.800Z,93.55
2017-11-05T07:12:07.794Z,94.13
2017-11-05T07:13:07.793Z,94.03
2017-11-05T07:14:07.778Z,94.13
2017-11-05T07:15:07.768Z,93.46
2017-11-05T07:16:07.764Z,93.08
2017-11-05T07:17:07.762Z,93.37
2017-11-05T07:18:07.746Z,93.08
2017-11-05T07:19:07.739Z,93.08
2017-11-05T07:20:07.731Z,93.37
2017-11-05T07:21:07.728Z,93.37
2017-11-05T07:22:07.714Z,93.37
2017-11-05T07:23:07.698Z,93.37
2017-11-05T07:24:07.708Z,93.55
2017-11-05T07:25:07.692Z,93.84
2017-11-05T07:26:07.685Z,94.03
2017-11-05T07:27:07.676Z,93.08
2017-11-05T07:28:07.671Z,93.55
2017-11-05T07:29:07.662Z,94.03
2017-11-05T07:30:07.654Z,94.03
2017-11-05T07:31:07.644Z,93.65
2017-11-05T07:32:07.638Z,93.93
2017-11-05T07:33:07.630Z,93.37
2017-11-05T07:34:07.629Z,93.27
2017-11-05T07:35:07.615Z,92.98
2017-11-05T07:36:07.608Z,92.79
2017-11-05T07:37:07.600Z,92.69
2017-11-05T07:38:07.587Z,92.89
2017-11-05T07:39:07.582Z,92.03
2017-11-05T07:40:07.582Z,92.41
2017-11-05T07:41:07.568Z,91.74
2017-11-05T07:42:07.559Z,91.74
2017-11-05T07:43:07.551Z,92.22
2017-11-05T07:44:07.545Z,92.60
2017-11-05T07:45:07.531Z,92.03
2017-11-05T07:46:07.533Z,91.84
2017-11-05T07:47:07.519Z,92.03
2017-11-05T07:48:07.538Z,91.94
2017-11-05T07:49:07.504Z,91.94
2017-11-05T07:50:07.497Z,92.41
2017-11-05T07:51:07.484Z,92.60
2017-11-05T07:52:07.480Z,92.60
2017-11-05T07:53:08.324Z,92.50
2017-11-05T07:54:07.487Z,91.84
2017-11-05T07:55:07.458Z,92.03
2017-11-05T07:56:07.449Z,92.41
2017-11-05T07:57:07.441Z,92.50
2017-11-05T07:58:07.433Z,92.50
2017-11-05T07:59:07.426Z,92.41
2017-11-05T08:00:08.329Z,92.60
2017-11-05T08:01:07.408Z,92.22
2017-11-05T08:02:07.403Z,92.60
2017-11-05T08:03:07.394Z,92.79
2017-11-05T08:04:07.387Z,92.60
2017-11-05T08:05:07.378Z,92.22
2017-11-05T08:06:07.372Z,92.22
2017-11-05T08:07:08.329Z,92.22
2017-11-05T08:08:07.354Z,92.41
2017-11-05T08:09:07.347Z,92.41
2017-11-05T08:10:07.349Z,92.22
2017-11-05T08:11:07.335Z,92.41
2017-11-05T08:12:07.323Z,92.22
2017-11-05T08:13:07.312Z,92.13
2017-11-05T08:14:07.316Z,91.94
2017-11-05T08:15:07.299Z,91.46
2017-11-05T08:16:07.295Z,91.84
2017-11-05T08:17:07.285Z,91.94
2017-11-05T08:18:07.295Z,92.32
2017-11-05T08:19:07.268Z,92.50
2017-11-05T08:20:07.261Z,92.22
2017-11-05T08:21:07.251Z,92.41
2017-11-05T08:22:07.247Z,92.41
2017-11-05T08:23:07.238Z,92.41
2017-11-05T08:24:07.223Z,92.50
2017-11-05T08:25:07.222Z,92.41
2017-11-05T08:26:07.217Z,92.22
2017-11-05T08:27:07.199Z,92.03
2017-11-05T08:28:07.215Z,91.74
2017-11-05T08:29:07.186Z,91.74
2017-11-05T08:30:07.184Z,91.74
2017-11-05T08:31:07.175Z,92.22
2017-11-05T08:32:07.173Z,92.22
2017-11-05T08:33:07.162Z,92.50
2017-11-05T08:34:07.830Z,91.55
2017-11-05T08:35:07.141Z,91.55
2017-11-05T08:36:07.136Z,92.22
2017-11-05T08:37:07.134Z,92.03
2017-11-05T08:38:07.120Z,91.74
2017-11-05T08:39:07.114Z,91.46
2017-11-05T08:40:07.105Z,91.55
2017-11-05T08:41:07.103Z,91.46
2017-11-05T08:42:07.098Z,91.46
2017-11-05T08:43:07.082Z,91.46
2017-11-05T08:44:07.073Z,92.03
2017-11-05T08:45:07.077Z,92.03
2017-11-05T08:46:07.058Z,91.74
2017-11-05T08:47:07.053Z,91.46
2017-11-05T08:48:07.055Z,91.08
2017-11-05T08:49:07.046Z,90.60
2017-11-05T08:50:07.026Z,90.98
2017-11-05T08:51:07.022Z,90.79
2017-11-05T08:52:07.040Z,90.79
2017-11-05T08:53:07.007Z,90.31
2017-11-05T08:54:06.997Z,90.50
2017-11-05T08:55:07.848Z,90.22
2017-11-05T08:56:06.984Z,90.98
2017-11-05T08:57:06.976Z,90.79
2017-11-05T08:58:06.966Z,90.79
2017-11-05T08:59:06.955Z,90.89
2017-11-05T09:00:06.950Z,90.98
2017-11-05T09:01:06.944Z,90.79
2017-11-05T09:02:06.936Z,90.79
2017-11-05T09:03:06.933Z,90.50
2017-11-05T09:04:06.923Z,90.60
2017-11-05T09:05:06.910Z,90.60
2017-11-05T09:06:06.900Z,90.79
2017-11-05T09:07:06.898Z,90.70
2017-11-05T09:08:06.889Z,90.31
2017-11-05T09:09:06.887Z,90.22
2017-11-05T09:10:06.875Z,90.50
2017-11-05T09:11:06.865Z,90.31
2017-11-05T09:12:06.859Z,90.31
2017-11-05T09:13:06.845Z,90.31
2017-11-05T09:14:06.852Z,90.22
2017-11-05T09:15:06.834Z,90.31
2017-11-05T09:16:06.833Z,90.31
2017-11-05T09:17:06.822Z,90.41
2017-11-05T09:18:06.812Z,90.50
2017-11-05T09:19:06.804Z,90.12
2017-11-05T09:20:06.807Z,90.41
2017-11-05T09:21:06.793Z,90.03
2017-11-05T09:22:06.782Z,90.41
2017-11-05T09:23:06.776Z,89.65
2017-11-05T09:24:06.768Z,89.65
2017-11-05T09:25:06.759Z,89.65
2017-11-05T09:26:06.750Z,90.03
2017-11-05T09:27:07.358Z,89.46
2017-11-05T09:28:06.736Z,89.36
2017-11-05T09:29:06.735Z,89.84
2017-11-05T09:30:06.726Z,89.75
2017-11-05T09:31:06.724Z,90.22
2017-11-05T09:32:06.709Z,89.46
2017-11-05T09:33:06.695Z,89.65
2017-11-05T09:34:06.692Z,89.69
2017-11-05T09:35:06.685Z,89.69
2017-11-05T09:36:06.678Z,89.60
2017-11-05T09:37:06.675Z,89.26
2017-11-05T09:38:06.662Z,89.12
2017-11-05T09:39:06.654Z,88.64
2017-11-05T09:40:06.650Z,89.03
2017-11-05T09:41:06.634Z,88.74
2017-11-05T09:42:06.634Z,89.03
2017-11-05T09:43:06.622Z,88.93
2017-11-05T09:44:06.622Z,88.45
2017-11-05T09:45:06.626Z,88.55
2017-11-05T09:46:06.602Z,88.17
2017-11-05T09:47:06.598Z,87.98
2017-11-05T09:48:06.594Z,87.98
2017-11-05T09:49:06.587Z,87.98
2017-11-05T09:50:06.574Z,87.50
2017-11-05T09:51:06.565Z,87.50
2017-11-05T09:52:06.561Z,87.12
2017-11-05T09:53:06.563Z,87.21
2017-11-05T09:54:06.540Z,86.55
2017-11-05T09:55:06.541Z,87.31
2017-11-05T09:56:06.533Z,86.16
2017-11-05T09:57:06.526Z,86.07
2017-11-05T09:58:06.526Z,86.45
2017-11-05T09:59:06.510Z,86.65
2017-11-05T10:00:06.503Z,86.93
2017-11-05T10:01:06.514Z,86.65
2017-11-05T10:02:06.490Z,87.02
2017-11-05T10:03:06.486Z,86.26
2017-11-05T10:04:06.476Z,87.31
2017-11-05T10:05:06.471Z,88.55
2017-11-05T10:06:06.458Z,90.26
2017-11-05T10:07:06.458Z,90.45
2017-11-05T10:08:06.447Z,90.36
2017-11-05T10:09:06.455Z,87.88
2017-11-05T10:10:06.439Z,86.74
2017-11-05T10:11:06.432Z,88.69
2017-11-05T10:12:06.429Z,85.97
2017-11-05T10:13:06.877Z,86.21
2017-11-05T10:14:06.409Z,87.64
2017-11-05T10:15:06.466Z,86.98
2017-11-05T10:16:06.394Z,84.97
2017-11-05T10:17:06.401Z,85.73
2017-11-05T10:18:06.383Z,86.59
2017-11-05T10:19:06.375Z,83.92
2017-11-05T10:20:06.372Z,83.64
2017-11-05T10:21:06.360Z,84.49
2017-11-05T10:22:06.347Z,85.83
2017-11-05T10:23:06.351Z,85.35
2017-11-05T10:24:06.347Z,86.02
2017-11-05T10:25:06.334Z,84.97
2017-11-05T10:26:06.325Z,84.69
2017-11-05T10:27:06.322Z,84.49
2017-11-05T10:28:06.312Z,84.45
2017-11-05T10:29:06.518Z,84.16
2017-11-05T10:30:06.316Z,83.50
2017-11-05T10:31:06.293Z,83.12
2017-11-05T10:32:06.293Z,83.59
2017-11-05T10:33:06.271Z,83.31
2017-11-05T10:34:06.266Z,83.12
2017-11-05T10:35:06.266Z,82.92
2017-11-05T10:36:06.264Z,82.73
2017-11-05T10:37:06.252Z,82.35
2017-11-05T10:38:06.249Z,82.54
2017-11-05T10:39:06.238Z,83.50
2017-11-05T10:40:06.229Z,83.50
2017-11-05T10:41:06.216Z,83.59
2017-11-05T10:42:06.240Z,83.50
2017-11-05T10:43:06.218Z,83.50
2017-11-05T10:44:06.208Z,83.59
2017-11-05T10:45:06.197Z,82.92
2017-11-05T10:46:06.193Z,83.78
2017-11-05T10:47:06.182Z,84.26
2017-11-05T10:48:06.166Z,84.16
2017-11-05T10:49:06.174Z,84.55
2017-11-05T10:50:06.171Z,84.16
2017-11-05T10:51:06.168Z,84.16
2017-11-05T10:52:06.143Z,84.45
2017-11-05T10:53:06.143Z,84.55
2017-11-05T10:54:06.133Z,83.50
2017-11-05T10:55:06.125Z,83.97
2017-11-05T10:56:06.124Z,84.26
2017-11-05T10:57:06.111Z,84.36
2017-11-05T10:58:06.105Z,83.78
2017-11-05T10:59:06.099Z,83.40
2017-11-05T11:00:06.095Z,83.35
2017-11-05T11:01:06.091Z,83.16
2017-11-05T11:02:06.075Z,83.02
2017-11-05T11:03:06.073Z,82.97
2017-11-05T11:04:06.075Z,83.06
2017-11-05T11:05:06.058Z,83.35
2017-11-05T11:06:06.051Z,83.35
2017-11-05T11:07:06.053Z,83.25
2017-11-05T11:08:06.030Z,83.54
2017-11-05T11:09:06.032Z,83.83
2017-11-05T11:10:06.024Z,83.73
2017-11-05T11:11:06.020Z,83.35
2017-11-05T11:12:06.007Z,82.68
2017-11-05T11:13:06.006Z,82.78
2017-11-05T11:14:05.998Z,82.11
2017-11-05T11:15:05.993Z,81.25
2017-11-05T11:16:05.989Z,82.01
2017-11-05T11:17:06.111Z,82.20
2017-11-05T11:18:05.972Z,82.59
2017-11-05T11:19:05.985Z,81.35
2017-11-05T11:20:05.958Z,81.35
2017-11-05T11:21:05.957Z,81.63
2017-11-05T11:22:05.947Z,81.82
2017-11-05T11:23:05.933Z,81.06
2017-11-05T11:24:05.935Z,81.35
2017-11-05T11:25:06.907Z,80.87
2017-11-05T11:26:05.918Z,80.39
2017-11-05T11:27:05.914Z,81.54
2017-11-05T11:28:06.008Z,82.11
2017-11-05T11:29:05.902Z,81.44
2017-11-05T11:30:05.898Z,80.87
2017-11-05T11:31:05.894Z,81.25
2017-11-05T11:32:05.875Z,80.20
2017-11-05T11:33:05.875Z,79.77
2017-11-05T11:34:05.870Z,79.63
2017-11-05T11:35:05.864Z,80.24
2017-11-05T11:36:05.853Z,79.82
2017-11-05T11:37:05.852Z,80.20
2017-11-05T11:38:05.851Z,80.01
2017-11-05T11:39:05.855Z,79.91
2017-11-05T11:40:05.849Z,79.67
2017-11-05T11:41:05.828Z,79.67
2017-11-05T11:42:05.825Z,79.67
2017-11-05T11:43:05.820Z,79.67
2017-11-05T11:44:05.808Z,80.05
2017-11-05T11:45:05.803Z,79.67
2017-11-05T11:46:05.803Z,79.00
2017-11-05T11:47:05.790Z,79.77
2017-11-05T11:48:05.785Z,79.86
2017-11-05T11:49:05.776Z,79.48
2017-11-05T11:50:05.768Z,79.19
2017-11-05T11:51:05.764Z,78.91
2017-11-05T11:52:05.766Z,78.81
2017-11-05T11:53:05.755Z,78.81
2017-11-05T11:54:05.746Z,79.00
2017-11-05T11:55:05.740Z,79.48
2017-11-05T11:56:05.737Z,79.00
2017-11-05T11:57:05.736Z,78.33
2017-11-05T11:58:05.718Z,78.14
2017-11-05T11:59:05.719Z,78.14
2017-11-05T12:00:05.706Z,77.76
2017-11-05T12:01:05.703Z,77.38
2017-11-05T12:02:05.696Z,76.90
2017-11-05T12:03:05.699Z,77.57
2017-11-05T12:04:05.682Z,77.28
2017-11-05T12:05:05.681Z,77.09
2017-11-05T12:06:05.675Z,77.38
2017-11-05T12:07:05.802Z,77.19
2017-11-05T12:08:05.661Z,76.04
2017-11-05T12:09:05.657Z,76.33
2017-11-05T12:10:05.654Z,76.71
2017-11-05T12:11:05.641Z,76.62
2017-11-05T12:12:05.645Z,76.81
2017-11-05T12:13:05.632Z,76.81
2017-11-05T12:14:08.976Z,77.00
2017-11-05T12:15:05.614Z,76.71
2017-11-05T12:16:05.612Z,76.71
2017-11-05T12:17:05.604Z,76.14
2017-11-05T12:18:05.600Z,76.04
2017-11-05T12:19:05.600Z,76.42
2017-11-05T12:20:05.590Z,75.47
2017-11-05T12:21:05.584Z,74.99
2017-11-05T12:22:05.576Z,75.47
2017-11-05T12:23:05.587Z,75.66
2017-11-05T12:24:05.835Z,74.80
2017-11-05T12:25:05.560Z,74.99
2017-11-05T12:26:05.554Z,75.37
2017-11-05T12:27:05.548Z,75.85
2017-11-05T12:28:05.545Z,75.57
2017-11-05T12:29:05.541Z,75.37
2017-11-05T12:30:05.530Z,75.37
2017-11-05T12:31:05.523Z,74.23
2017-11-05T12:32:05.514Z,72.61
2017-11-05T12:33:05.519Z,72.71
2017-11-05T12:34:05.507Z,72.32
2017-11-05T12:35:05.504Z,72.51
2017-11-05T12:36:05.494Z,73.47
2017-11-05T12:37:05.491Z,73.28
2017-11-05T12:38:05.486Z,73.94
2017-11-05T12:39:05.480Z,73.66
2017-11-05T12:40:05.539Z,73.56
2017-11-05T12:41:05.464Z,73.66
2017-11-05T12:42:05.458Z,73.37
2017-11-05T12:43:05.451Z,72.23
2017-11-05T12:44:05.451Z,72.42
2017-11-05T12:45:05.442Z,73.28
2017-11-05T12:46:05.444Z,73.37
2017-11-05T12:47:05.428Z,73.47
2017-11-05T12:48:05.427Z,73.28
2017-11-05T12:49:05.411Z,72.42
2017-11-05T12:50:05.414Z,72.61
2017-11-05T12:51:05.402Z,73.37
2017-11-05T12:52:05.403Z,73.08